Time;durP1;ratioP1;P1;durP2;ratioP2;P2;SDS_P1;SDS_P2;PMS_P1;PMS_P2;Temp;Humidity;BMP_temperature;BMP_pressure;BME280_temperature;BME280_humidity;BME280_pressure;Samples;Min_cycle;Max_cycle;Signal;HPM_P1;HPM_P2
2021/09/05 00:02:16;;;;;;;14.93;12.57;;;17.00;99.90;;;;;;5085792;28;20483;-91
2021/09/05 00:04:44;;;;;;;13.60;12.30;;;17.00;99.90;;;;;;5086508;28;20447;-92
2021/09/05 00:07:11;;;;;;;16.23;14.43;;;17.00;99.90;;;;;;5086140;28;20435;-91
2021/09/05 00:09:38;;;;;;;19.07;12.80;;;17.00;99.90;;;;;;5086028;28;20813;-90
2021/09/05 00:12:05;;;;;;;20.63;14.20;;;16.90;99.90;;;;;;5088498;28;20467;-91
2021/09/05 00:14:32;;;;;;;15.87;13.10;;;16.80;99.90;;;;;;5092739;28;20538;-92
2021/09/05 00:17:00;;;;;;;17.67;14.87;;;16.80;99.90;;;;;;5086837;28;20444;-92
2021/09/05 00:19:27;;;;;;;13.10;12.00;;;16.70;99.90;;;;;;5084393;28;20435;-92
2021/09/05 00:21:55;;;;;;;13.90;12.40;;;16.70;99.90;;;;;;5085965;28;20898;-92
2021/09/05 00:24:22;;;;;;;14.07;12.67;;;16.70;99.90;;;;;;5084991;28;20462;-91
2021/09/05 00:26:49;;;;;;;12.90;11.77;;;16.80;99.90;;;;;;5084498;28;20460;-91
2021/09/05 00:29:17;;;;;;;16.60;14.33;;;16.80;99.90;;;;;;5084244;28;20436;-91
2021/09/05 00:31:44;;;;;;;20.60;13.40;;;16.80;99.90;;;;;;5081402;28;20451;-92
2021/09/05 00:34:11;;;;;;;14.53;12.03;;;16.60;99.90;;;;;;5083557;28;20482;-92
2021/09/05 00:36:38;;;;;;;19.20;14.73;;;16.60;99.90;;;;;;5085548;28;20957;-92
2021/09/05 00:39:07;;;;;;;19.00;13.63;;;16.60;99.90;;;;;;5091885;28;20432;-92
2021/09/05 00:41:34;;;;;;;19.13;13.50;;;16.60;99.90;;;;;;5087906;28;20432;-92
2021/09/05 00:44:04;;;;;;;23.03;13.87;;;16.60;99.90;;;;;;5083337;28;20432;-91
2021/09/05 00:46:32;;;;;;;20.00;13.30;;;16.50;99.90;;;;;;5088451;28;20435;-91
2021/09/05 00:48:59;;;;;;;16.17;13.60;;;16.40;99.90;;;;;;5087838;28;20460;-92
2021/09/05 00:51:29;;;;;;;16.00;13.10;;;16.40;99.90;;;;;;5085627;28;20455;-91
2021/09/05 00:53:57;;;;;;;19.00;12.60;;;16.30;99.90;;;;;;5087514;28;20569;-91
2021/09/05 00:56:27;;;;;;;14.60;12.10;;;16.30;99.90;;;;;;5087734;28;20474;-91
2021/09/05 00:58:55;;;;;;;16.63;12.83;;;16.30;99.90;;;;;;5089114;28;20461;-91
2021/09/05 01:01:22;;;;;;;14.40;12.80;;;16.30;99.90;;;;;;5087900;28;20474;-92
2021/09/05 01:03:49;;;;;;;13.13;11.83;;;16.20;99.90;;;;;;5085746;28;20455;-92
2021/09/05 01:06:16;;;;;;;13.13;11.83;;;16.20;99.90;;;;;;5086459;28;20432;-92
2021/09/05 01:08:44;;;;;;;13.93;11.83;;;16.20;99.90;;;;;;5085712;28;20444;-91
2021/09/05 01:11:12;;;;;;;18.17;13.83;;;16.10;99.90;;;;;;5087794;28;20946;-92
2021/09/05 01:13:41;;;;;;;17.43;11.57;;;16.10;99.90;;;;;;5086866;28;20487;-92
2021/09/05 01:16:23;;;;;;;17.40;12.83;;;16.10;99.90;;;;;;5083935;28;20440;-91
2021/09/05 01:18:50;;;;;;;17.23;12.93;;;16.10;99.90;;;;;;5085919;28;20833;-91
2021/09/05 01:21:17;;;;;;;12.97;11.67;;;16.10;99.90;;;;;;5096240;28;20537;-90
2021/09/05 01:23:44;;;;;;;18.07;13.47;;;16.00;99.90;;;;;;5092111;28;20519;-93
2021/09/05 01:26:12;;;;;;;16.00;13.47;;;16.00;99.90;;;;;;5087384;28;20570;-91
2021/09/05 01:28:41;;;;;;;24.57;14.53;;;16.00;99.90;;;;;;5085617;28;20447;-92
2021/09/05 01:31:08;;;;;;;16.60;13.80;;;15.90;99.90;;;;;;5086729;28;20479;-92
2021/09/05 01:33:34;;;;;;;13.30;11.70;;;15.90;99.90;;;;;;5087222;28;20507;-91
2021/09/05 01:36:01;;;;;;;19.40;13.63;;;15.90;99.90;;;;;;5087118;28;20507;-91
2021/09/05 01:38:28;;;;;;;21.47;13.60;;;15.90;99.90;;;;;;5085452;28;20432;-91
2021/09/05 01:40:55;;;;;;;14.50;13.00;;;15.80;99.90;;;;;;5088030;28;20455;-91
2021/09/05 01:43:24;;;;;;;20.10;13.73;;;15.80;99.90;;;;;;5087907;28;20487;-91
2021/09/05 01:45:52;;;;;;;22.93;13.20;;;15.70;99.90;;;;;;5083535;28;20527;-91
2021/09/05 01:48:19;;;;;;;20.23;14.97;;;15.70;99.90;;;;;;5083508;28;20456;-92
2021/09/05 01:50:46;;;;;;;13.50;12.20;;;15.70;99.90;;;;;;5082821;28;20458;-91
2021/09/05 01:53:13;;;;;;;14.67;13.27;;;15.70;99.90;;;;;;5092843;28;20464;-92
2021/09/05 01:55:40;;;;;;;14.10;12.60;;;15.80;99.90;;;;;;5096651;28;20529;-92
2021/09/05 01:58:06;;;;;;;14.20;12.70;;;15.80;99.90;;;;;;5093248;28;20482;-92
2021/09/05 02:00:33;;;;;;;13.70;12.50;;;15.80;99.90;;;;;;5083561;28;20432;-92
2021/09/05 02:03:01;;;;;;;12.97;11.67;;;15.70;99.90;;;;;;5086575;28;20471;-91
2021/09/05 02:05:30;;;;;;;17.60;12.93;;;15.70;99.90;;;;;;5091249;28;20415;-92
2021/09/05 02:07:58;;;;;;;14.97;11.53;;;15.70;99.90;;;;;;5234485;22;20602;-91
2021/09/05 02:10:25;;;;;;;18.20;13.27;;;15.60;99.90;;;;;;5066029;28;20528;-91
2021/09/05 02:12:54;;;;;;;17.30;12.87;;;15.60;99.90;;;;;;5077715;28;20461;-91
2021/09/05 02:15:21;;;;;;;13.97;12.67;;;15.60;99.90;;;;;;5085410;28;21073;-91
2021/09/05 02:17:48;;;;;;;18.10;12.97;;;15.50;99.90;;;;;;5086548;28;20477;-91
2021/09/05 02:20:16;;;;;;;14.97;13.17;;;15.50;99.90;;;;;;5085540;28;20831;-91
2021/09/05 02:22:43;;;;;;;15.57;13.03;;;15.50;99.90;;;;;;5086232;28;20498;-91
2021/09/05 02:25:10;;;;;;;17.20;13.70;;;15.50;99.90;;;;;;5086285;28;20454;-91
2021/09/05 02:27:37;;;;;;;15.23;13.63;;;15.50;99.90;;;;;;5087422;28;20530;-91
2021/09/05 02:30:05;;;;;;;13.87;12.47;;;15.50;99.90;;;;;;5083515;28;20457;-92
2021/09/05 02:32:32;;;;;;;13.73;12.33;;;15.50;99.90;;;;;;5086928;28;20432;-91
2021/09/05 02:34:59;;;;;;;15.13;13.53;;;15.50;99.90;;;;;;5085779;28;20491;-91
2021/09/05 02:37:28;;;;;;;13.13;11.73;;;15.60;99.90;;;;;;5089731;28;20940;-93
2021/09/05 02:39:54;;;;;;;15.97;14.43;;;15.60;99.90;;;;;;5080834;28;20486;-91
2021/09/05 02:42:21;;;;;;;15.10;13.60;;;15.50;99.90;;;;;;5078480;28;20542;-91
2021/09/05 02:44:48;;;;;;;13.53;12.13;;;15.50;99.90;;;;;;5079886;28;20448;-92
2021/09/05 02:47:15;;;;;;;14.73;12.77;;;15.50;99.90;;;;;;5081654;28;20448;-90
2021/09/05 02:49:42;;;;;;;16.67;12.80;;;15.40;99.90;;;;;;5078734;28;20438;-91
2021/09/05 02:52:10;;;;;;;14.20;12.83;;;15.40;99.90;;;;;;5084514;28;20538;-91
2021/09/05 02:54:39;;;;;;;14.73;13.33;;;15.40;99.90;;;;;;5084897;28;20478;-91
2021/09/05 02:57:06;;;;;;;17.50;12.60;;;15.40;99.90;;;;;;5080930;28;20452;-91
2021/09/05 02:59:33;;;;;;;13.30;11.93;;;15.40;99.90;;;;;;5083223;28;20451;-91
2021/09/05 03:02:00;;;;;;;14.03;12.50;;;15.40;99.90;;;;;;5080154;28;20462;-91
2021/09/05 03:04:27;;;;;;;12.63;11.40;;;15.30;99.90;;;;;;5082822;28;20432;-91
2021/09/05 03:06:54;;;;;;;13.93;12.63;;;15.20;99.90;;;;;;5082807;28;20541;-91
2021/09/05 03:09:21;;;;;;;13.20;11.90;;;15.20;99.90;;;;;;5079541;28;20447;-90
2021/09/05 03:11:50;;;;;;;13.17;11.77;;;15.20;99.90;;;;;;5080023;28;20446;-90
2021/09/05 03:14:16;;;;;;;16.17;12.87;;;15.10;99.90;;;;;;5083523;22;20495;-88
2021/09/05 03:16:43;;;;;;;15.40;11.77;;;15.10;99.90;;;;;;5060009;28;20466;-87
2021/09/05 03:19:11;;;;;;;14.77;13.17;;;15.20;99.90;;;;;;5060550;28;20456;-88
2021/09/05 03:21:38;;;;;;;17.30;13.33;;;15.20;99.90;;;;;;5067512;28;20441;-88
2021/09/05 03:24:05;;;;;;;13.70;12.33;;;15.20;99.90;;;;;;5089000;28;20455;-88
2021/09/05 03:26:33;;;;;;;13.03;11.83;;;15.20;99.90;;;;;;5086173;28;20438;-89
2021/09/05 03:29:02;;;;;;;13.03;11.73;;;15.10;99.90;;;;;;5082220;28;20496;-88
2021/09/05 03:31:29;;;;;;;15.90;13.00;;;15.10;99.90;;;;;;5083919;28;20443;-90
2021/09/05 03:33:55;;;;;;;14.13;12.80;;;15.00;99.90;;;;;;5088507;28;20455;-87
2021/09/05 03:36:22;;;;;;;14.47;12.97;;;15.00;99.90;;;;;;5094508;28;20430;-91
2021/09/05 03:38:49;;;;;;;14.30;12.80;;;15.00;99.90;;;;;;5084704;28;20469;-91
2021/09/05 03:41:16;;;;;;;13.13;12.00;;;15.00;99.90;;;;;;5083731;28;20538;-88
2021/09/05 03:43:46;;;;;;;14.10;12.80;;;15.00;99.90;;;;;;5083507;28;20550;-88
2021/09/05 03:46:15;;;;;;;13.73;12.33;;;14.90;99.90;;;;;;5083010;28;20518;-87
2021/09/05 03:48:44;;;;;;;14.43;12.10;;;14.80;99.90;;;;;;5084866;28;20515;-87
2021/09/05 03:51:14;;;;;;;13.80;12.47;;;14.80;99.90;;;;;;5089567;28;20424;-87
2021/09/05 03:53:44;;;;;;;14.40;12.40;;;14.70;99.90;;;;;;5094867;28;20464;-88
2021/09/05 03:56:10;;;;;;;16.33;12.50;;;14.80;99.90;;;;;;5082614;28;20493;-87
2021/09/05 03:58:39;;;;;;;13.47;12.07;;;14.80;99.90;;;;;;5084038;28;20474;-89
2021/09/05 04:01:06;;;;;;;12.37;11.17;;;14.70;99.90;;;;;;5084100;28;20478;-88
2021/09/05 04:03:35;;;;;;;13.80;12.20;;;14.80;99.90;;;;;;5097090;28;20476;-88
2021/09/05 04:06:03;;;;;;;13.93;11.67;;;14.80;99.90;;;;;;5087174;28;20467;-87
2021/09/05 04:08:39;;;;;;;13.73;12.30;;;14.80;99.90;;;;;;5088711;28;20451;-87
2021/09/05 04:11:07;;;;;;;13.40;12.00;;;14.80;99.90;;;;;;5088372;28;20471;-87
2021/09/05 04:13:35;;;;;;;13.00;11.70;;;14.70;99.90;;;;;;5082661;28;21025;-87
2021/09/05 04:16:01;;;;;;;14.13;12.60;;;14.70;99.90;;;;;;5085025;28;20477;-88
2021/09/05 04:18:28;;;;;;;13.83;12.43;;;14.70;99.90;;;;;;5081641;28;20455;-87
2021/09/05 04:20:56;;;;;;;13.57;12.17;;;14.70;99.90;;;;;;5086723;28;20468;-88
2021/09/05 04:23:23;;;;;;;12.30;10.97;;;14.60;99.90;;;;;;5088193;28;20469;-87
2021/09/05 04:25:50;;;;;;;13.63;12.23;;;14.50;99.90;;;;;;5085718;28;20515;-87
2021/09/05 04:28:17;;;;;;;14.10;12.63;;;14.50;99.90;;;;;;5083972;28;20455;-87
2021/09/05 04:30:44;;;;;;;13.37;11.53;;;14.50;99.90;;;;;;5081798;28;20452;-88
2021/09/05 04:33:11;;;;;;;14.07;12.03;;;14.50;99.90;;;;;;5078004;28;20471;-89
2021/09/05 04:35:38;;;;;;;12.90;11.43;;;14.50;99.90;;;;;;5080302;28;20475;-88
2021/09/05 04:38:06;;;;;;;16.10;12.87;;;14.50;99.90;;;;;;5078738;28;20461;-88
2021/09/05 04:40:33;;;;;;;17.47;12.00;;;14.50;99.90;;;;;;5084942;28;20447;-88
2021/09/05 04:42:59;;;;;;;14.03;12.70;;;14.50;99.90;;;;;;5086854;28;20462;-88
2021/09/05 04:45:26;;;;;;;14.07;12.67;;;14.40;99.90;;;;;;5090523;28;20449;-87
2021/09/05 04:47:56;;;;;;;13.37;12.13;;;14.40;99.90;;;;;;5087675;28;20458;-87
2021/09/05 04:50:23;;;;;;;12.93;11.63;;;14.40;99.90;;;;;;5085248;28;20449;-88
2021/09/05 04:52:49;;;;;;;13.13;10.87;;;14.40;99.90;;;;;;5085955;28;20463;-86
2021/09/05 04:55:21;;;;;;;12.93;11.73;;;14.30;99.90;;;;;;5088314;28;20481;-87
2021/09/05 04:57:47;;;;;;;14.77;13.27;;;14.30;99.90;;;;;;5086358;28;20936;-88
2021/09/05 05:00:15;;;;;;;14.90;11.80;;;14.40;99.90;;;;;;5091056;28;20451;-86
2021/09/05 05:02:42;;;;;;;14.63;13.23;;;14.40;99.90;;;;;;5095081;28;20467;-88
2021/09/05 05:05:09;;;;;;;13.10;11.90;;;14.50;99.90;;;;;;5088077;28;20473;-88
2021/09/05 05:07:36;;;;;;;13.67;12.27;;;14.50;99.90;;;;;;5081302;28;20455;-87
2021/09/05 05:10:03;;;;;;;12.93;11.73;;;14.50;99.90;;;;;;5082950;28;20521;-87
2021/09/05 05:12:31;;;;;;;18.93;13.70;;;14.50;99.90;;;;;;5093935;28;20464;-87
2021/09/05 05:14:58;;;;;;;12.70;11.50;;;14.50;99.90;;;;;;5097291;28;20489;-86
2021/09/05 05:17:25;;;;;;;13.60;12.30;;;14.50;99.90;;;;;;5094983;28;20426;-86
2021/09/05 05:19:51;;;;;;;14.43;12.60;;;14.60;99.90;;;;;;5092539;28;20443;-86
2021/09/05 05:22:18;;;;;;;13.70;12.37;;;14.60;99.90;;;;;;5089519;28;20464;-85
2021/09/05 05:24:45;;;;;;;12.73;11.40;;;14.70;99.90;;;;;;5084737;28;20423;-86
2021/09/05 05:27:12;;;;;;;12.17;10.90;;;14.70;99.90;;;;;;5088243;28;20442;-85
2021/09/05 05:29:40;;;;;;;12.60;11.40;;;14.70;99.90;;;;;;5085440;28;20499;-85
2021/09/05 05:32:07;;;;;;;12.27;11.10;;;14.70;99.90;;;;;;5087429;28;20483;-86
2021/09/05 05:34:34;;;;;;;14.17;12.53;;;14.70;99.90;;;;;;5085162;28;20439;-86
2021/09/05 05:37:03;;;;;;;13.90;12.30;;;14.70;99.90;;;;;;5088409;28;20437;-85
2021/09/05 05:39:30;;;;;;;13.73;11.80;;;14.80;99.90;;;;;;5098424;28;20465;-85
2021/09/05 05:41:57;;;;;;;15.70;11.90;;;14.80;99.90;;;;;;5093680;28;20806;-85
2021/09/05 05:44:24;;;;;;;12.40;11.20;;;14.80;99.90;;;;;;5090410;28;20426;-85
2021/09/05 05:46:52;;;;;;;12.50;11.27;;;14.80;99.90;;;;;;5094909;28;20465;-85
2021/09/05 05:49:19;;;;;;;13.10;11.90;;;14.70;99.90;;;;;;5096227;28;20443;-84
2021/09/05 05:51:45;;;;;;;15.97;11.13;;;14.70;99.90;;;;;;5096329;28;20504;-84
2021/09/05 05:54:14;;;;;;;12.93;11.70;;;14.80;99.90;;;;;;5091240;28;20466;-85
2021/09/05 05:56:42;;;;;;;15.23;11.83;;;14.90;99.90;;;;;;5092791;28;20470;-85
2021/09/05 05:59:09;;;;;;;13.17;11.83;;;15.00;99.90;;;;;;5095013;28;20443;-85
2021/09/05 06:01:36;;;;;;;14.13;12.27;;;15.10;99.90;;;;;;5095841;28;20450;-85
2021/09/05 06:04:05;;;;;;;14.10;12.63;;;15.10;99.90;;;;;;5089200;28;20927;-88
2021/09/05 06:06:33;;;;;;;12.50;10.63;;;15.20;99.90;;;;;;5095628;28;20431;-88
2021/09/05 06:09:24;;;;;;;12.03;10.77;;;15.20;99.90;;;;;;5093865;28;20444;-88
2021/09/05 06:11:51;;;;;;;14.90;12.53;;;15.30;99.90;;;;;;5029047;28;20472;-88
2021/09/05 06:14:50;;;;;;;12.83;11.63;;;15.40;99.90;;;;;;5082536;28;20474;-88
2021/09/05 06:17:21;;;;;;;16.20;13.10;;;15.40;99.90;;;;;;5083270;28;20730;-88
2021/09/05 06:20:15;;;;;;;14.27;12.77;;;15.50;99.90;;;;;;5081459;28;20436;-87
2021/09/05 06:23:06;;;;;;;18.23;14.03;;;15.50;99.90;;;;;;5085526;28;20476;-88
2021/09/05 06:26:00;;;;;;;13.73;12.43;;;15.60;99.90;;;;;;5084017;28;20720;-87
2021/09/05 06:34:42;;;;;;;14.43;12.93;;;15.80;99.90;;;;;;5083912;28;20463;-88
2021/09/05 06:37:52;;;;;;;13.30;12.10;;;15.90;99.90;;;;;;5093774;28;20460;-87
2021/09/05 06:50:01;;;;;;;13.60;12.20;;;16.30;99.90;;;;;;5067157;28;20665;-87
2021/09/05 06:56:48;;;;;;;13.30;11.00;;;16.70;99.90;;;;;;4961032;28;20506;-87
2021/09/05 07:13:44;;;;;;;;;;;;;;;;;;;;;
2021/09/05 07:16:59;;;;;;;11.90;10.70;;;17.90;99.90;;;;;;5080982;28;20479;-87
2021/09/05 07:20:08;;;;;;;;;;;;;;;;;;;;;
2021/09/05 07:49:55;;;;;;;10.80;9.70;;;22.00;96.20;;;;;;5026430;28;20455;-88
2021/09/05 07:56:35;;;;;;;10.90;9.90;;;21.90;97.00;;;;;;4961136;28;20472;-89
2021/09/05 08:06:30;;;;;;;;;;;;;;;;;;;;;
2021/09/05 08:19:37;;;;;;;17.90;16.23;;;21.00;98.70;;;;;;5030017;28;20488;-88
2021/09/05 08:36:09;;;;;;;9.23;8.37;;;21.40;98.30;;;;;;5090809;28;20522;-87
2021/09/05 08:38:36;;;;;;;9.00;8.10;;;22.70;95.80;;;;;;5089816;28;20633;-88
2021/09/05 08:41:03;;;;;;;9.23;8.43;;;24.30;94.40;;;;;;5090750;28;20900;-86
2021/09/05 08:43:30;;;;;;;8.03;7.23;;;25.70;91.40;;;;;;5089966;28;20472;-87
2021/09/05 08:45:57;;;;;;;9.53;8.53;;;27.90;85.70;;;;;;5093541;28;20463;-89
2021/09/05 08:48:24;;;;;;;8.90;8.20;;;29.60;77.90;;;;;;5085530;23;20497;-89
2021/09/05 08:50:54;;;;;;;8.27;7.47;;;30.50;70.50;;;;;;5055363;28;20449;-87
2021/09/05 08:53:25;;;;;;;8.70;8.00;;;31.40;65.90;;;;;;5060266;28;20491;-87
2021/09/05 08:55:53;;;;;;;8.67;7.97;;;32.70;60.90;;;;;;5065294;28;20460;-88
2021/09/05 08:58:21;;;;;;;8.40;7.67;;;32.60;59.80;;;;;;5059836;28;20468;-88
2021/09/05 09:00:50;;;;;;;9.00;7.90;;;34.60;56.20;;;;;;5054960;28;20523;-89
2021/09/05 09:03:23;;;;;;;9.77;8.90;;;34.60;53.40;;;;;;5053967;28;20456;-88
2021/09/05 09:05:53;;;;;;;8.33;7.73;;;35.00;52.80;;;;;;5063782;28;20436;-89
2021/09/05 09:08:23;;;;;;;8.50;7.90;;;35.80;50.90;;;;;;5060960;28;20484;-89
2021/09/05 09:10:54;;;;;;;8.40;7.50;;;36.50;50.30;;;;;;5059455;28;20439;-90
2021/09/05 09:13:28;;;;;;;8.67;7.70;;;36.80;49.10;;;;;;5057614;28;20429;-88
2021/09/05 09:15:56;;;;;;;8.67;7.97;;;37.20;48.10;;;;;;5057159;28;20455;-89
2021/09/05 09:18:28;;;;;;;9.20;8.37;;;38.20;47.20;;;;;;5067474;28;20472;-90
2021/09/05 09:21:00;;;;;;;9.17;8.57;;;38.30;45.50;;;;;;5068153;28;20445;-90
2021/09/05 09:23:34;;;;;;;9.20;8.40;;;38.50;44.30;;;;;;5060421;28;20440;-89
2021/09/05 09:26:03;;;;;;;8.40;7.77;;;38.70;44.70;;;;;;5057262;28;20449;-90
2021/09/05 09:28:33;;;;;;;9.07;8.37;;;39.30;43.30;;;;;;5058959;28;20496;-89
2021/09/05 09:31:05;;;;;;;9.10;8.40;;;38.20;44.30;;;;;;5070024;28;20440;-88
2021/09/05 09:33:33;;;;;;;8.80;8.13;;;38.20;44.10;;;;;;5072791;28;20456;-89
2021/09/05 09:36:05;;;;;;;8.87;7.93;;;38.80;43.70;;;;;;5063916;28;20521;-88
2021/09/05 09:38:34;;;;;;;7.83;7.23;;;38.30;43.70;;;;;;5044691;28;20473;-89
2021/09/05 09:41:14;;;;;;;9.20;8.50;;;39.30;43.30;;;;;;5053379;28;20445;-90
2021/09/05 09:43:50;;;;;;;9.00;7.83;;;39.80;41.80;;;;;;5051960;28;20456;-89
2021/09/05 09:46:21;;;;;;;9.00;8.20;;;40.30;41.10;;;;;;5040920;28;20449;-89
2021/09/05 09:48:51;;;;;;;8.40;7.80;;;41.30;40.00;;;;;;5048116;28;20476;-90
2021/09/05 09:51:19;;;;;;;7.70;7.20;;;41.80;38.20;;;;;;5056097;28;20461;-89
2021/09/05 09:53:51;;;;;;;8.53;7.73;;;41.20;38.20;;;;;;5059997;28;20438;-90
2021/09/05 09:56:20;;;;;;;8.70;8.00;;;40.70;38.40;;;;;;5053769;28;20433;-91
2021/09/05 09:58:59;;;;;;;8.30;7.70;;;42.20;37.70;;;;;;5059776;28;20529;-89
2021/09/05 10:05:15;;;;;;;7.03;6.43;;;44.80;33.50;;;;;;5054027;28;20540;-87
2021/09/05 10:25:10;;;;;;;8.30;7.70;;;39.20;39.20;;;;;;4983993;28;20454;-89
2021/09/05 11:10:32;;;;;;;7.10;6.60;;;39.50;36.00;;;;;;4790797;29;20835;-87
2021/09/05 11:13:43;;;;;;;;;;;;;;;;;;;;;
2021/09/05 11:32:45;;;;;;;7.00;5.73;;;41.70;31.20;;;;;;5152351;23;20494;-87
2021/09/05 11:35:14;;;;;;;6.33;5.93;;;41.70;30.90;;;;;;5105811;28;20474;-90
2021/09/05 11:37:42;;;;;;;6.30;5.90;;;40.90;31.50;;;;;;5100822;28;20525;-90
2021/09/05 11:40:11;;;;;;;6.30;5.80;;;41.60;31.90;;;;;;5099747;28;20468;-89
2021/09/05 11:42:47;;;;;;;6.40;5.90;;;42.00;31.70;;;;;;5101281;28;20486;-89
2021/09/05 11:45:16;;;;;;;5.10;4.70;;;42.40;30.90;;;;;;5099576;28;20984;-89
2021/09/05 11:47:44;;;;;;;5.50;5.10;;;42.40;29.50;;;;;;5102558;28;20928;-88
2021/09/05 11:50:12;;;;;;;5.83;5.17;;;41.40;30.70;;;;;;5096597;28;20478;-90
2021/09/05 11:52:42;;;;;;;5.73;5.30;;;40.20;31.20;;;;;;5094931;28;20831;-89
2021/09/05 11:55:10;;;;;;;5.50;5.10;;;39.30;32.20;;;;;;5096065;28;21013;-89
2021/09/05 11:57:39;;;;;;;6.07;5.57;;;39.70;31.80;;;;;;5096519;28;20453;-89
2021/09/05 12:00:08;;;;;;;5.87;5.37;;;40.30;30.10;;;;;;5095747;28;20442;-89
2021/09/05 12:02:38;;;;;;;5.40;4.90;;;40.50;29.60;;;;;;5096603;28;20821;-89
2021/09/05 12:05:16;;;;;;;4.93;4.53;;;41.10;29.20;;;;;;5099316;28;20474;-91
2021/09/05 12:07:47;;;;;;;5.20;4.77;;;40.60;30.30;;;;;;5098738;28;20462;-92
2021/09/05 12:10:19;;;;;;;4.60;4.30;;;41.60;29.80;;;;;;5104878;28;20450;-91
2021/09/05 12:13:06;;;;;;;4.93;4.53;;;40.80;28.80;;;;;;5102473;28;20474;-89
2021/09/05 12:15:36;;;;;;;4.80;4.50;;;41.30;29.40;;;;;;5104867;28;20478;-90
2021/09/05 12:18:20;;;;;;;4.70;4.40;;;41.90;28.50;;;;;;5117520;28;20431;-92
2021/09/05 12:20:57;;;;;;;5.33;4.73;;;42.30;30.60;;;;;;5096021;28;20952;-93
2021/09/05 12:23:30;;;;;;;5.37;4.97;;;42.80;28.80;;;;;;5099908;28;20422;-92
2021/09/05 12:26:02;;;;;;;5.13;4.80;;;42.80;27.60;;;;;;5117903;28;20446;-92
2021/09/05 12:32:03;;;;;;;;;;;;;;;;;;;;;
2021/09/05 12:38:46;;;;;;;5.13;4.73;;;37.50;30.80;;;;;;4968447;28;20448;-92
2021/09/05 12:41:55;;;;;;;6.30;5.70;;;34.90;33.90;;;;;;5032416;28;20453;-91
2021/09/05 12:45:16;;;;;;;4.87;4.47;;;33.90;35.90;;;;;;5049532;28;20849;-91
2021/09/05 12:55:54;;;;;;;5.93;5.43;;;35.40;35.20;;;;;;5021684;28;20560;-91
2021/09/05 12:58:21;;;;;;;5.27;4.80;;;37.40;34.40;;;;;;5099906;28;20465;-90
2021/09/05 13:00:56;;;;;;;5.33;4.93;;;37.60;33.60;;;;;;5094057;28;20442;-92
2021/09/05 13:13:36;;;;;;;5.60;5.20;;;42.40;27.40;;;;;;4948966;29;20474;-94
2021/09/05 13:33:57;;;;;;;5.43;5.03;;;37.60;31.90;;;;;;5030373;28;20461;-92
2021/09/05 14:18:27;;;;;;;4.60;4.20;;;30.20;40.20;;;;;;5035266;28;20520;-92
2021/09/05 14:20:55;;;;;;;4.57;4.17;;;30.10;41.40;;;;;;5026352;28;20446;-90
2021/09/05 14:23:22;;;;;;;5.40;5.00;;;30.20;40.70;;;;;;5106999;28;20473;-89
2021/09/05 14:25:49;;;;;;;5.40;4.97;;;29.90;40.90;;;;;;5102768;28;20493;-92
2021/09/05 14:28:19;;;;;;;5.03;4.53;;;29.30;41.30;;;;;;5100260;28;20453;-91
2021/09/05 14:30:48;;;;;;;5.03;4.63;;;28.80;41.80;;;;;;5103735;28;20473;-89
2021/09/05 14:33:40;;;;;;;5.63;5.13;;;28.50;42.60;;;;;;5117176;28;20472;-90
2021/09/05 14:55:21;;;;;;;4.53;4.13;;;28.70;42.10;;;;;;5106139;28;20991;-89
2021/09/05 14:57:48;;;;;;;5.33;4.93;;;28.50;42.20;;;;;;5102108;28;20434;-90
2021/09/05 15:00:44;;;;;;;5.27;4.70;;;28.10;42.30;;;;;;5108260;28;20803;-94
2021/09/05 15:03:22;;;;;;;5.20;4.70;;;28.50;42.50;;;;;;5102194;28;20460;-91
2021/09/05 15:06:04;;;;;;;8.03;4.70;;;28.80;41.80;;;;;;5099120;28;20784;-89
2021/09/05 15:11:17;;;;;;;5.53;4.93;;;29.10;42.30;;;;;;5103409;28;20496;-87
2021/09/05 15:13:44;;;;;;;5.83;5.33;;;29.20;41.70;;;;;;5101582;28;20447;-88
2021/09/05 15:16:11;;;;;;;5.40;4.80;;;29.60;40.90;;;;;;5098510;28;20486;-88
2021/09/05 15:18:38;;;;;;;5.43;4.80;;;29.80;41.20;;;;;;5101641;28;20450;-87
2021/09/05 15:21:07;;;;;;;5.37;4.87;;;30.10;40.70;;;;;;5117629;28;20440;-89
2021/09/05 15:23:41;;;;;;;10.83;5.30;;;30.20;40.50;;;;;;5102044;28;20435;-87
2021/09/05 15:26:10;;;;;;;6.10;4.97;;;30.30;40.90;;;;;;5099203;28;20438;-87
2021/09/05 15:28:41;;;;;;;5.80;5.30;;;30.70;40.30;;;;;;5098442;28;21021;-87
2021/09/05 15:31:12;;;;;;;5.80;5.30;;;30.80;40.70;;;;;;5099392;28;20474;-87
2021/09/05 15:33:50;;;;;;;5.93;5.43;;;30.70;40.30;;;;;;5100955;28;20529;-87
2021/09/05 15:36:30;;;;;;;5.37;4.97;;;30.30;40.90;;;;;;5104359;28;20533;-88
2021/09/05 15:39:20;;;;;;;5.10;4.70;;;29.70;42.10;;;;;;5099797;28;20446;-91
2021/09/05 15:55:41;;;;;;;9.30;8.20;;;27.10;46.40;;;;;;5089965;28;20470;-90
2021/09/05 15:58:10;;;;;;;6.13;4.93;;;27.00;46.80;;;;;;5113966;28;20433;-89
2021/09/05 16:00:44;;;;;;;5.40;4.90;;;27.00;47.20;;;;;;5118005;28;20460;-88
2021/09/05 16:03:17;;;;;;;6.73;5.00;;;26.90;47.70;;;;;;5117767;28;20462;-89
2021/09/05 16:16:44;;;;;;;6.17;5.60;;;26.70;48.90;;;;;;5113605;28;20502;-89
2021/09/05 16:19:16;;;;;;;6.03;5.20;;;26.70;47.90;;;;;;5108492;28;20528;-90
2021/09/05 16:21:46;;;;;;;6.67;6.07;;;26.60;48.00;;;;;;5115096;28;20482;-91
2021/09/05 16:24:13;;;;;;;5.20;4.70;;;26.60;48.40;;;;;;5115755;28;20474;-91
2021/09/05 16:26:42;;;;;;;6.40;5.80;;;26.40;49.10;;;;;;5113466;28;20451;-90
2021/09/05 16:29:11;;;;;;;6.00;5.43;;;26.30;49.90;;;;;;5101021;28;20432;-90
2021/09/05 16:31:40;;;;;;;6.60;6.07;;;26.20;49.90;;;;;;5100005;28;20524;-89
2021/09/05 16:34:11;;;;;;;6.93;6.00;;;26.20;50.20;;;;;;5095740;28;20505;-90
2021/09/05 16:42:08;;;;;;;6.20;5.70;;;26.10;51.20;;;;;;5096744;28;20494;-90
2021/09/05 16:44:35;;;;;;;6.10;5.40;;;26.10;51.10;;;;;;5098866;28;20438;-90
2021/09/05 16:47:02;;;;;;;7.50;6.80;;;26.00;51.60;;;;;;5098458;28;20465;-89
2021/09/05 16:49:29;;;;;;;6.87;6.00;;;25.90;52.00;;;;;;5098964;28;20442;-90
2021/09/05 16:51:56;;;;;;;5.60;5.10;;;25.90;52.50;;;;;;5078510;28;20459;-91
2021/09/05 16:54:22;;;;;;;5.93;5.40;;;25.80;52.20;;;;;;5079208;28;20447;-90
2021/09/05 16:56:49;;;;;;;5.90;5.27;;;25.80;52.40;;;;;;5086891;28;20490;-90
2021/09/05 16:59:17;;;;;;;5.50;5.00;;;25.70;52.20;;;;;;5078324;28;20436;-90
2021/09/05 17:01:45;;;;;;;6.50;5.90;;;25.60;52.90;;;;;;5092004;28;20468;-90
2021/09/05 17:04:12;;;;;;;6.27;5.77;;;25.60;53.40;;;;;;5063908;28;20447;-89
2021/09/05 17:06:39;;;;;;;6.87;6.27;;;25.60;53.50;;;;;;5087333;28;20427;-90
2021/09/05 17:09:06;;;;;;;6.80;6.17;;;25.50;53.60;;;;;;5100212;28;20506;-90
2021/09/05 17:11:33;;;;;;;6.93;6.30;;;25.50;54.40;;;;;;5100367;28;20502;-90
2021/09/05 17:14:00;;;;;;;7.83;7.10;;;25.50;54.70;;;;;;5099766;28;20457;-89
2021/09/05 17:16:28;;;;;;;8.40;6.70;;;25.50;55.10;;;;;;5098492;28;20474;-89
2021/09/05 17:18:55;;;;;;;6.67;5.97;;;25.40;55.50;;;;;;5091404;28;20447;-90
2021/09/05 17:21:24;;;;;;;5.70;5.20;;;25.30;55.80;;;;;;5081085;28;20496;-90
2021/09/05 17:23:51;;;;;;;5.97;5.20;;;25.30;56.40;;;;;;5083140;28;20450;-90
2021/09/05 17:26:18;;;;;;;6.20;5.67;;;25.20;56.90;;;;;;5078946;28;20446;-87
2021/09/05 17:28:46;;;;;;;9.93;5.93;;;25.10;57.30;;;;;;5078509;28;20431;-91
2021/09/05 17:31:13;;;;;;;6.50;5.90;;;25.00;57.30;;;;;;5079232;28;20447;-89
2021/09/05 17:33:43;;;;;;;6.90;6.30;;;24.90;57.40;;;;;;5057834;23;20861;-91
2021/09/05 17:36:10;;;;;;;7.17;6.47;;;24.90;57.70;;;;;;5039390;28;20552;-90
2021/09/05 17:38:37;;;;;;;6.37;5.87;;;24.80;58.00;;;;;;5039285;28;20947;-90
2021/09/05 17:41:04;;;;;;;6.60;6.03;;;24.80;57.80;;;;;;5043068;28;20433;-91
2021/09/05 17:43:35;;;;;;;6.53;5.90;;;24.70;57.80;;;;;;5041569;28;20469;-90
2021/09/05 17:46:02;;;;;;;7.93;7.23;;;24.60;58.30;;;;;;5040749;28;20441;-90
2021/09/05 17:48:32;;;;;;;7.40;6.70;;;24.50;58.60;;;;;;5042401;28;20930;-90
2021/09/05 17:51:01;;;;;;;7.20;6.50;;;24.40;58.90;;;;;;5043686;28;20437;-90
2021/09/05 17:53:28;;;;;;;6.60;6.00;;;24.30;58.90;;;;;;5039318;28;20548;-91
2021/09/05 17:56:03;;;;;;;6.77;6.00;;;24.30;59.00;;;;;;5041508;28;20538;-91
2021/09/05 17:58:30;;;;;;;7.13;5.50;;;24.20;59.00;;;;;;5051684;28;20448;-90
2021/09/05 18:00:57;;;;;;;5.60;5.10;;;24.10;59.30;;;;;;5055464;28;20544;-91
2021/09/05 18:03:27;;;;;;;8.60;6.43;;;24.20;59.50;;;;;;5047221;28;21076;-90
2021/09/05 18:05:55;;;;;;;6.87;6.27;;;24.20;61.10;;;;;;5057047;28;20464;-90
2021/09/05 18:08:23;;;;;;;6.90;6.30;;;24.10;61.30;;;;;;5051138;28;20480;-90
2021/09/05 18:10:53;;;;;;;7.53;6.70;;;24.00;62.00;;;;;;5041835;28;20460;-91
2021/09/05 18:13:23;;;;;;;8.47;6.83;;;23.80;61.80;;;;;;5047493;28;20465;-91
2021/09/05 18:15:53;;;;;;;6.80;6.20;;;23.70;62.90;;;;;;5041330;28;20434;-91